sensor_id;sensor_type;location;lat;lon;timestamp;P1;durP1;ratioP1;P2;durP2;ratioP2
73959;SDS011;62316;48.920;2.342;2023-09-18T00:00:19;4.67;;;3.33;;
73959;SDS011;62316;48.920;2.342;2023-09-18T00:02:46;4.00;;;3.00;;
73959;SDS011;62316;48.920;2.342;2023-09-18T00:05:14;2.33;;;2.33;;
73959;SDS011;62316;48.920;2.342;2023-09-18T00:07:44;3.00;;;3.00;;
73959;SDS011;62316;48.920;2.342;2023-09-18T00:10:09;4.33;;;4.33;;
73959;SDS011;62316;48.920;2.342;2023-09-18T00:12:35;3.33;;;3.33;;
73959;SDS011;62316;48.920;2.342;2023-09-18T00:15:00;2.00;;;2.00;;
73959;SDS011;62316;48.920;2.342;2023-09-18T00:17:25;5.33;;;4.33;;
73959;SDS011;62316;48.920;2.342;2023-09-18T00:19:54;3.67;;;3.67;;
73959;SDS011;62316;48.920;2.342;2023-09-18T00:22:19;4.67;;;4.67;;
73959;SDS011;62316;48.920;2.342;2023-09-18T00:24:45;4.67;;;4.67;;
73959;SDS011;62316;48.920;2.342;2023-09-18T00:27:11;4.67;;;4.00;;
73959;SDS011;62316;48.920;2.342;2023-09-18T00:29:36;4.00;;;4.00;;
73959;SDS011;62316;48.920;2.342;2023-09-18T00:32:01;3.67;;;2.67;;
73959;SDS011;62316;48.920;2.342;2023-09-18T00:34:26;4.67;;;2.33;;
73959;SDS011;62316;48.920;2.342;2023-09-18T00:36:52;3.00;;;3.00;;
73959;SDS011;62316;48.920;2.342;2023-09-18T00:39:17;3.67;;;3.67;;
73959;SDS011;62316;48.920;2.342;2023-09-18T00:41:42;4.33;;;2.67;;
73959;SDS011;62316;48.920;2.342;2023-09-18T00:44:08;4.33;;;4.00;;
73959;SDS011;62316;48.920;2.342;2023-09-18T00:46:33;4.33;;;4.00;;
73959;SDS011;62316;48.920;2.342;2023-09-18T00:49:00;3.67;;;3.67;;
73959;SDS011;62316;48.920;2.342;2023-09-18T00:51:25;2.67;;;2.67;;
73959;SDS011;62316;48.920;2.342;2023-09-18T00:53:50;3.00;;;3.00;;
73959;SDS011;62316;48.920;2.342;2023-09-18T00:56:16;3.00;;;3.00;;
73959;SDS011;62316;48.920;2.342;2023-09-18T00:58:42;3.00;;;1.67;;
73959;SDS011;62316;48.920;2.342;2023-09-18T01:01:09;2.00;;;2.00;;
73959;SDS011;62316;48.920;2.342;2023-09-18T01:03:35;3.00;;;3.00;;
73959;SDS011;62316;48.920;2.342;2023-09-18T01:06:01;2.33;;;2.33;;
73959;SDS011;62316;48.920;2.342;2023-09-18T01:08:26;1.00;;;1.00;;
73959;SDS011;62316;48.920;2.342;2023-09-18T01:10:56;3.00;;;2.00;;
73959;SDS011;62316;48.920;2.342;2023-09-18T01:13:41;4.00;;;1.67;;
73959;SDS011;62316;48.920;2.342;2023-09-18T01:16:13;2.00;;;2.00;;
73959;SDS011;62316;48.920;2.342;2023-09-18T01:18:48;2.33;;;2.33;;
73959;SDS011;62316;48.920;2.342;2023-09-18T01:21:13;2.00;;;1.33;;
73959;SDS011;62316;48.920;2.342;2023-09-18T01:23:38;2.00;;;1.00;;
73959;SDS011;62316;48.920;2.342;2023-09-18T01:26:03;2.00;;;2.00;;
73959;SDS011;62316;48.920;2.342;2023-09-18T01:28:28;1.33;;;1.33;;
73959;SDS011;62316;48.920;2.342;2023-09-18T01:30:54;2.00;;;2.00;;
73959;SDS011;62316;48.920;2.342;2023-09-18T01:33:19;1.33;;;1.33;;
73959;SDS011;62316;48.920;2.342;2023-09-18T01:35:45;1.00;;;0.00;;
73959;SDS011;62316;48.920;2.342;2023-09-18T01:38:11;2.33;;;2.33;;
73959;SDS011;62316;48.920;2.342;2023-09-18T01:40:36;1.00;;;1.00;;
73959;SDS011;62316;48.920;2.342;2023-09-18T01:43:02;1.00;;;1.00;;
73959;SDS011;62316;48.920;2.342;2023-09-18T01:45:28;1.67;;;1.00;;
73959;SDS011;62316;48.920;2.342;2023-09-18T01:47:53;1.67;;;1.00;;
73959;SDS011;62316;48.920;2.342;2023-09-18T01:50:18;1.00;;;1.00;;
73959;SDS011;62316;48.920;2.342;2023-09-18T01:55:51;1.00;;;1.00;;
73959;SDS011;62316;48.920;2.342;2023-09-18T01:58:18;1.00;;;1.00;;
73959;SDS011;62316;48.920;2.342;2023-09-18T02:00:44;1.67;;;1.00;;
73959;SDS011;62316;48.920;2.342;2023-09-18T02:03:09;1.00;;;1.00;;
73959;SDS011;62316;48.920;2.342;2023-09-18T02:05:34;0.67;;;0.67;;
73959;SDS011;62316;48.920;2.342;2023-09-18T02:08:01;0.00;;;0.00;;
73959;SDS011;62316;48.920;2.342;2023-09-18T02:10:27;1.00;;;0.67;;
73959;SDS011;62316;48.920;2.342;2023-09-18T02:12:55;0.67;;;0.67;;
73959;SDS011;62316;48.920;2.342;2023-09-18T02:15:20;0.67;;;0.67;;
73959;SDS011;62316;48.920;2.342;2023-09-18T02:17:45;2.33;;;2.33;;
73959;SDS011;62316;48.920;2.342;2023-09-18T02:20:11;1.00;;;1.00;;
73959;SDS011;62316;48.920;2.342;2023-09-18T02:22:37;1.67;;;1.67;;
73959;SDS011;62316;48.920;2.342;2023-09-18T02:25:03;1.00;;;1.00;;
73959;SDS011;62316;48.920;2.342;2023-09-18T02:27:28;1.00;;;1.00;;
73959;SDS011;62316;48.920;2.342;2023-09-18T02:29:53;2.67;;;1.67;;
73959;SDS011;62316;48.920;2.342;2023-09-18T02:32:19;2.33;;;1.00;;
73959;SDS011;62316;48.920;2.342;2023-09-18T02:34:44;1.00;;;1.00;;
73959;SDS011;62316;48.920;2.342;2023-09-18T02:37:09;5.67;;;3.00;;
73959;SDS011;62316;48.920;2.342;2023-09-18T02:39:34;2.33;;;2.33;;
73959;SDS011;62316;48.920;2.342;2023-09-18T02:42:00;2.00;;;2.00;;
73959;SDS011;62316;48.920;2.342;2023-09-18T02:44:25;1.00;;;1.00;;
73959;SDS011;62316;48.920;2.342;2023-09-18T02:46:51;1.33;;;1.33;;
73959;SDS011;62316;48.920;2.342;2023-09-18T02:49:16;2.00;;;2.00;;
73959;SDS011;62316;48.920;2.342;2023-09-18T02:51:41;1.33;;;1.33;;
73959;SDS011;62316;48.920;2.342;2023-09-18T02:54:06;2.33;;;1.33;;
73959;SDS011;62316;48.920;2.342;2023-09-18T02:56:31;2.00;;;2.00;;
73959;SDS011;62316;48.920;2.342;2023-09-18T02:58:57;1.00;;;1.00;;
73959;SDS011;62316;48.920;2.342;2023-09-18T03:01:22;2.67;;;2.67;;
73959;SDS011;62316;48.920;2.342;2023-09-18T03:03:47;2.00;;;2.00;;
73959;SDS011;62316;48.920;2.342;2023-09-18T03:06:12;1.33;;;1.33;;
73959;SDS011;62316;48.920;2.342;2023-09-18T03:08:38;1.00;;;1.00;;
73959;SDS011;62316;48.920;2.342;2023-09-18T03:11:10;2.33;;;2.33;;
73959;SDS011;62316;48.920;2.342;2023-09-18T03:13:35;2.00;;;2.00;;
73959;SDS011;62316;48.920;2.342;2023-09-18T03:16:00;1.33;;;1.33;;
73959;SDS011;62316;48.920;2.342;2023-09-18T03:18:26;2.00;;;2.00;;
73959;SDS011;62316;48.920;2.342;2023-09-18T03:20:51;2.33;;;1.00;;
73959;SDS011;62316;48.920;2.342;2023-09-18T03:23:16;3.00;;;1.67;;
73959;SDS011;62316;48.920;2.342;2023-09-18T03:25:41;2.67;;;2.67;;
73959;SDS011;62316;48.920;2.342;2023-09-18T03:28:07;2.00;;;2.00;;
73959;SDS011;62316;48.920;2.342;2023-09-18T03:30:32;4.33;;;2.67;;
73959;SDS011;62316;48.920;2.342;2023-09-18T03:32:57;2.00;;;1.67;;
73959;SDS011;62316;48.920;2.342;2023-09-18T03:35:22;2.33;;;1.33;;
73959;SDS011;62316;48.920;2.342;2023-09-18T03:37:49;3.00;;;3.00;;
73959;SDS011;62316;48.920;2.342;2023-09-18T03:40:15;1.67;;;1.67;;
73959;SDS011;62316;48.920;2.342;2023-09-18T03:42:41;8.33;;;8.33;;
73959;SDS011;62316;48.920;2.342;2023-09-18T03:45:06;3.00;;;3.00;;
73959;SDS011;62316;48.920;2.342;2023-09-18T03:47:33;4.00;;;3.00;;
73959;SDS011;62316;48.920;2.342;2023-09-18T03:49:59;2.33;;;2.33;;
73959;SDS011;62316;48.920;2.342;2023-09-18T03:52:24;3.00;;;3.00;;
73959;SDS011;62316;48.920;2.342;2023-09-18T03:54:49;3.33;;;1.67;;
73959;SDS011;62316;48.920;2.342;2023-09-18T03:57:15;3.67;;;3.00;;
73959;SDS011;62316;48.920;2.342;2023-09-18T03:59:40;4.00;;;2.00;;
73959;SDS011;62316;48.920;2.342;2023-09-18T04:02:05;3.00;;;3.00;;
73959;SDS011;62316;48.920;2.342;2023-09-18T04:04:31;2.67;;;2.67;;
73959;SDS011;62316;48.920;2.342;2023-09-18T04:06:57;2.67;;;2.00;;
73959;SDS011;62316;48.920;2.342;2023-09-18T04:09:22;3.33;;;3.00;;
73959;SDS011;62316;48.920;2.342;2023-09-18T04:11:48;4.00;;;4.00;;
73959;SDS011;62316;48.920;2.342;2023-09-18T04:14:13;3.00;;;2.00;;
73959;SDS011;62316;48.920;2.342;2023-09-18T04:16:39;2.33;;;2.33;;
73959;SDS011;62316;48.920;2.342;2023-09-18T04:19:06;2.00;;;2.00;;
73959;SDS011;62316;48.920;2.342;2023-09-18T04:21:32;3.33;;;3.33;;
73959;SDS011;62316;48.920;2.342;2023-09-18T04:23:57;4.67;;;2.67;;
73959;SDS011;62316;48.920;2.342;2023-09-18T04:26:27;2.67;;;2.67;;
73959;SDS011;62316;48.920;2.342;2023-09-18T04:28:58;2.67;;;2.67;;
73959;SDS011;62316;48.920;2.342;2023-09-18T04:31:24;3.67;;;3.67;;
73959;SDS011;62316;48.920;2.342;2023-09-18T04:33:49;4.67;;;3.00;;
73959;SDS011;62316;48.920;2.342;2023-09-18T04:36:15;4.00;;;4.00;;
73959;SDS011;62316;48.920;2.342;2023-09-18T04:38:40;5.33;;;3.00;;
73959;SDS011;62316;48.920;2.342;2023-09-18T04:41:06;8.00;;;8.00;;
73959;SDS011;62316;48.920;2.342;2023-09-18T04:43:37;4.00;;;4.00;;
73959;SDS011;62316;48.920;2.342;2023-09-18T04:46:05;5.33;;;3.67;;
73959;SDS011;62316;48.920;2.342;2023-09-18T04:48:31;5.00;;;5.00;;
73959;SDS011;62316;48.920;2.342;2023-09-18T04:50:57;4.00;;;4.00;;
73959;SDS011;62316;48.920;2.342;2023-09-18T04:53:22;4.00;;;3.00;;
73959;SDS011;62316;48.920;2.342;2023-09-18T04:55:48;2.33;;;2.33;;
73959;SDS011;62316;48.920;2.342;2023-09-18T04:58:16;5.00;;;4.33;;
73959;SDS011;62316;48.920;2.342;2023-09-18T05:00:42;4.00;;;4.00;;
73959;SDS011;62316;48.920;2.342;2023-09-18T05:03:07;4.33;;;3.67;;
73959;SDS011;62316;48.920;2.342;2023-09-18T05:05:33;6.67;;;3.67;;
73959;SDS011;62316;48.920;2.342;2023-09-18T05:07:59;6.00;;;3.00;;
73959;SDS011;62316;48.920;2.342;2023-09-18T05:10:24;4.00;;;4.00;;
73959;SDS011;62316;48.920;2.342;2023-09-18T05:12:49;4.67;;;4.00;;
73959;SDS011;62316;48.920;2.342;2023-09-18T05:15:15;2.33;;;2.33;;
73959;SDS011;62316;48.920;2.342;2023-09-18T05:17:45;6.00;;;6.00;;
73959;SDS011;62316;48.920;2.342;2023-09-18T05:20:17;4.00;;;4.00;;
73959;SDS011;62316;48.920;2.342;2023-09-18T05:22:49;3.00;;;3.00;;
73959;SDS011;62316;48.920;2.342;2023-09-18T05:25:15;2.33;;;2.33;;
73959;SDS011;62316;48.920;2.342;2023-09-18T05:27:40;7.67;;;5.67;;
73959;SDS011;62316;48.920;2.342;2023-09-18T05:30:09;4.33;;;4.33;;
73959;SDS011;62316;48.920;2.342;2023-09-18T05:32:35;4.67;;;4.67;;
73959;SDS011;62316;48.920;2.342;2023-09-18T05:35:00;4.00;;;3.67;;
73959;SDS011;62316;48.920;2.342;2023-09-18T05:37:29;5.67;;;5.00;;
73959;SDS011;62316;48.920;2.342;2023-09-18T05:39:55;4.33;;;4.33;;
73959;SDS011;62316;48.920;2.342;2023-09-18T05:42:20;5.00;;;5.00;;
73959;SDS011;62316;48.920;2.342;2023-09-18T05:44:46;5.67;;;5.00;;
73959;SDS011;62316;48.920;2.342;2023-09-18T05:47:11;5.33;;;4.33;;
73959;SDS011;62316;48.920;2.342;2023-09-18T05:49:37;7.67;;;7.67;;
73959;SDS011;62316;48.920;2.342;2023-09-18T05:52:03;11.33;;;9.00;;
73959;SDS011;62316;48.920;2.342;2023-09-18T05:54:28;12.00;;;7.67;;
73959;SDS011;62316;48.920;2.342;2023-09-18T05:56:54;4.67;;;4.67;;
73959;SDS011;62316;48.920;2.342;2023-09-18T05:59:19;7.00;;;5.67;;
73959;SDS011;62316;48.920;2.342;2023-09-18T06:01:45;9.00;;;8.00;;
73959;SDS011;62316;48.920;2.342;2023-09-18T06:04:10;8.00;;;6.33;;
73959;SDS011;62316;48.920;2.342;2023-09-18T06:06:37;8.33;;;7.33;;
73959;SDS011;62316;48.920;2.342;2023-09-18T06:09:03;7.00;;;6.33;;
73959;SDS011;62316;48.920;2.342;2023-09-18T06:11:28;6.33;;;5.00;;
73959;SDS011;62316;48.920;2.342;2023-09-18T06:13:53;9.33;;;7.00;;
73959;SDS011;62316;48.920;2.342;2023-09-18T06:16:19;8.33;;;7.33;;
73959;SDS011;62316;48.920;2.342;2023-09-18T06:18:44;7.33;;;7.33;;
73959;SDS011;62316;48.920;2.342;2023-09-18T06:21:10;5.00;;;5.00;;
73959;SDS011;62316;48.920;2.342;2023-09-18T06:23:35;8.33;;;6.33;;
73959;SDS011;62316;48.920;2.342;2023-09-18T06:26:01;6.00;;;6.00;;
73959;SDS011;62316;48.920;2.342;2023-09-18T06:28:26;5.67;;;5.67;;
73959;SDS011;62316;48.920;2.342;2023-09-18T06:30:52;6.33;;;6.33;;
73959;SDS011;62316;48.920;2.342;2023-09-18T06:33:19;8.33;;;8.33;;
73959;SDS011;62316;48.920;2.342;2023-09-18T06:35:44;6.00;;;6.00;;
73959;SDS011;62316;48.920;2.342;2023-09-18T06:38:09;6.67;;;6.67;;
73959;SDS011;62316;48.920;2.342;2023-09-18T06:40:37;9.33;;;6.67;;
73959;SDS011;62316;48.920;2.342;2023-09-18T06:43:02;8.67;;;7.33;;
73959;SDS011;62316;48.920;2.342;2023-09-18T06:45:27;8.00;;;7.00;;
73959;SDS011;62316;48.920;2.342;2023-09-18T06:47:53;7.67;;;6.00;;
73959;SDS011;62316;48.920;2.342;2023-09-18T06:50:18;7.00;;;6.00;;
73959;SDS011;62316;48.920;2.342;2023-09-18T06:52:44;9.67;;;7.67;;
73959;SDS011;62316;48.920;2.342;2023-09-18T06:55:09;10.00;;;8.67;;
73959;SDS011;62316;48.920;2.342;2023-09-18T06:57:34;5.00;;;5.00;;
73959;SDS011;62316;48.920;2.342;2023-09-18T06:59:59;8.33;;;7.00;;
73959;SDS011;62316;48.920;2.342;2023-09-18T07:02:25;7.00;;;6.33;;
73959;SDS011;62316;48.920;2.342;2023-09-18T07:04:50;8.67;;;8.67;;
73959;SDS011;62316;48.920;2.342;2023-09-18T07:07:16;7.00;;;6.00;;
73959;SDS011;62316;48.920;2.342;2023-09-18T07:09:41;11.67;;;10.33;;
73959;SDS011;62316;48.920;2.342;2023-09-18T07:12:07;9.33;;;8.33;;
73959;SDS011;62316;48.920;2.342;2023-09-18T07:14:33;7.67;;;6.00;;
73959;SDS011;62316;48.920;2.342;2023-09-18T07:16:58;9.00;;;8.67;;
73959;SDS011;62316;48.920;2.342;2023-09-18T07:19:25;8.67;;;8.33;;
73959;SDS011;62316;48.920;2.342;2023-09-18T07:21:51;7.00;;;6.67;;
73959;SDS011;62316;48.920;2.342;2023-09-18T07:24:16;7.33;;;7.33;;
73959;SDS011;62316;48.920;2.342;2023-09-18T07:26:43;6.00;;;6.00;;
73959;SDS011;62316;48.920;2.342;2023-09-18T07:29:08;7.00;;;5.00;;
73959;SDS011;62316;48.920;2.342;2023-09-18T07:31:33;9.33;;;8.00;;
73959;SDS011;62316;48.920;2.342;2023-09-18T07:34:00;8.00;;;8.00;;
73959;SDS011;62316;48.920;2.342;2023-09-18T07:36:25;8.33;;;7.00;;
73959;SDS011;62316;48.920;2.342;2023-09-18T07:38:51;10.00;;;6.67;;
73959;SDS011;62316;48.920;2.342;2023-09-18T07:41:16;8.67;;;7.00;;
73959;SDS011;62316;48.920;2.342;2023-09-18T07:43:42;9.67;;;9.00;;
73959;SDS011;62316;48.920;2.342;2023-09-18T07:46:07;7.67;;;7.33;;
73959;SDS011;62316;48.920;2.342;2023-09-18T07:48:32;10.33;;;9.33;;
73959;SDS011;62316;48.920;2.342;2023-09-18T07:50:57;5.00;;;5.00;;
73959;SDS011;62316;48.920;2.342;2023-09-18T07:53:23;7.00;;;6.33;;
73959;SDS011;62316;48.920;2.342;2023-09-18T07:55:48;9.00;;;9.00;;
73959;SDS011;62316;48.920;2.342;2023-09-18T07:58:20;6.67;;;6.67;;
73959;SDS011;62316;48.920;2.342;2023-09-18T08:00:45;8.33;;;6.33;;
73959;SDS011;62316;48.920;2.342;2023-09-18T08:03:10;6.67;;;6.67;;
73959;SDS011;62316;48.920;2.342;2023-09-18T08:05:36;8.33;;;6.33;;
73959;SDS011;62316;48.920;2.342;2023-09-18T08:08:01;8.33;;;7.33;;
73959;SDS011;62316;48.920;2.342;2023-09-18T08:10:30;9.67;;;6.67;;
73959;SDS011;62316;48.920;2.342;2023-09-18T08:12:55;7.33;;;7.00;;
73959;SDS011;62316;48.920;2.342;2023-09-18T08:15:20;8.67;;;6.33;;
73959;SDS011;62316;48.920;2.342;2023-09-18T08:17:46;8.33;;;7.00;;
73959;SDS011;62316;48.920;2.342;2023-09-18T08:20:13;7.00;;;5.33;;
73959;SDS011;62316;48.920;2.342;2023-09-18T08:22:40;10.00;;;10.00;;
73959;SDS011;62316;48.920;2.342;2023-09-18T08:25:06;8.00;;;7.67;;
73959;SDS011;62316;48.920;2.342;2023-09-18T08:27:39;6.67;;;5.67;;
73959;SDS011;62316;48.920;2.342;2023-09-18T08:30:09;7.00;;;7.00;;
73959;SDS011;62316;48.920;2.342;2023-09-18T08:32:35;6.67;;;6.67;;
73959;SDS011;62316;48.920;2.342;2023-09-18T08:35:00;10.33;;;9.33;;
73959;SDS011;62316;48.920;2.342;2023-09-18T08:37:27;6.00;;;5.67;;
73959;SDS011;62316;48.920;2.342;2023-09-18T08:39:52;6.00;;;6.00;;
73959;SDS011;62316;48.920;2.342;2023-09-18T08:42:17;7.33;;;6.67;;
73959;SDS011;62316;48.920;2.342;2023-09-18T08:44:44;11.00;;;8.00;;
73959;SDS011;62316;48.920;2.342;2023-09-18T08:47:10;6.67;;;6.67;;
73959;SDS011;62316;48.920;2.342;2023-09-18T08:49:37;6.33;;;6.33;;
73959;SDS011;62316;48.920;2.342;2023-09-18T08:52:02;7.67;;;5.00;;
73959;SDS011;62316;48.920;2.342;2023-09-18T08:54:31;8.67;;;6.00;;
73959;SDS011;62316;48.920;2.342;2023-09-18T08:56:58;6.00;;;5.00;;
73959;SDS011;62316;48.920;2.342;2023-09-18T08:59:23;10.00;;;7.50;;
73959;SDS011;62316;48.920;2.342;2023-09-18T09:01:50;6.33;;;6.00;;
73959;SDS011;62316;48.920;2.342;2023-09-18T09:04:18;5.00;;;5.00;;
73959;SDS011;62316;48.920;2.342;2023-09-18T09:06:44;5.67;;;5.67;;
73959;SDS011;62316;48.920;2.342;2023-09-18T09:09:09;4.67;;;4.67;;
73959;SDS011;62316;48.920;2.342;2023-09-18T09:11:38;3.00;;;2.33;;
73959;SDS011;62316;48.920;2.342;2023-09-18T09:14:10;4.67;;;4.00;;
73959;SDS011;62316;48.920;2.342;2023-09-18T09:16:41;6.33;;;6.33;;
73959;SDS011;62316;48.920;2.342;2023-09-18T09:19:06;8.67;;;6.00;;
73959;SDS011;62316;48.920;2.342;2023-09-18T09:21:42;4.33;;;4.33;;
73959;SDS011;62316;48.920;2.342;2023-09-18T09:24:08;5.67;;;5.00;;
73959;SDS011;62316;48.920;2.342;2023-09-18T09:26:38;8.00;;;7.00;;
73959;SDS011;62316;48.920;2.342;2023-09-18T09:29:17;7.00;;;5.00;;
73959;SDS011;62316;48.920;2.342;2023-09-18T09:31:43;6.67;;;6.67;;
73959;SDS011;62316;48.920;2.342;2023-09-18T09:34:09;4.33;;;4.33;;
73959;SDS011;62316;48.920;2.342;2023-09-18T09:36:34;6.33;;;5.00;;
73959;SDS011;62316;48.920;2.342;2023-09-18T09:38:59;7.33;;;6.33;;
73959;SDS011;62316;48.920;2.342;2023-09-18T09:41:25;6.33;;;4.33;;
73959;SDS011;62316;48.920;2.342;2023-09-18T09:43:52;5.00;;;5.00;;
73959;SDS011;62316;48.920;2.342;2023-09-18T09:46:19;5.00;;;5.00;;
73959;SDS011;62316;48.920;2.342;2023-09-18T09:49:03;5.00;;;5.00;;
73959;SDS011;62316;48.920;2.342;2023-09-18T09:51:29;5.00;;;5.00;;
73959;SDS011;62316;48.920;2.342;2023-09-18T09:53:55;6.67;;;6.67;;
73959;SDS011;62316;48.920;2.342;2023-09-18T09:56:25;8.33;;;7.67;;
73959;SDS011;62316;48.920;2.342;2023-09-18T09:59:25;4.67;;;4.00;;
73959;SDS011;62316;48.920;2.342;2023-09-18T10:01:52;6.00;;;6.00;;
73959;SDS011;62316;48.920;2.342;2023-09-18T10:04:19;4.67;;;4.67;;
73959;SDS011;62316;48.920;2.342;2023-09-18T10:06:51;4.00;;;4.00;;
73959;SDS011;62316;48.920;2.342;2023-09-18T10:09:16;6.00;;;5.00;;
73959;SDS011;62316;48.920;2.342;2023-09-18T10:11:44;3.00;;;3.00;;
73959;SDS011;62316;48.920;2.342;2023-09-18T10:17:19;5.00;;;4.33;;
73959;SDS011;62316;48.920;2.342;2023-09-18T10:19:46;7.33;;;5.00;;
73959;SDS011;62316;48.920;2.342;2023-09-18T10:22:33;4.00;;;3.00;;
73959;SDS011;62316;48.920;2.342;2023-09-18T10:25:24;4.00;;;3.00;;
73959;SDS011;62316;48.920;2.342;2023-09-18T10:27:51;6.00;;;3.33;;
73959;SDS011;62316;48.920;2.342;2023-09-18T10:30:23;4.00;;;4.00;;
73959;SDS011;62316;48.920;2.342;2023-09-18T10:32:51;5.00;;;4.00;;
73959;SDS011;62316;48.920;2.342;2023-09-18T10:35:20;5.67;;;4.67;;
73959;SDS011;62316;48.920;2.342;2023-09-18T10:37:46;5.00;;;3.67;;
73959;SDS011;62316;48.920;2.342;2023-09-18T10:40:19;5.67;;;5.00;;
73959;SDS011;62316;48.920;2.342;2023-09-18T10:42:57;5.00;;;5.00;;
73959;SDS011;62316;48.920;2.342;2023-09-18T10:45:26;4.33;;;3.00;;
73959;SDS011;62316;48.920;2.342;2023-09-18T10:47:52;3.33;;;3.00;;
73959;SDS011;62316;48.920;2.342;2023-09-18T10:50:23;5.67;;;4.33;;
73959;SDS011;62316;48.920;2.342;2023-09-18T10:52:50;2.00;;;2.00;;
73959;SDS011;62316;48.920;2.342;2023-09-18T10:55:15;5.00;;;4.00;;
73959;SDS011;62316;48.920;2.342;2023-09-18T10:58:02;5.00;;;5.00;;
73959;SDS011;62316;48.920;2.342;2023-09-18T11:00:31;5.33;;;4.00;;
73959;SDS011;62316;48.920;2.342;2023-09-18T11:03:15;4.00;;;4.00;;
73959;SDS011;62316;48.920;2.342;2023-09-18T11:05:44;4.33;;;4.00;;
73959;SDS011;62316;48.920;2.342;2023-09-18T11:11:29;6.33;;;5.67;;
73959;SDS011;62316;48.920;2.342;2023-09-18T11:13:58;3.33;;;2.67;;
73959;SDS011;62316;48.920;2.342;2023-09-18T11:19:16;10.00;;;7.67;;
73959;SDS011;62316;48.920;2.342;2023-09-18T11:21:37;5.00;;;5.00;;
73959;SDS011;62316;48.920;2.342;2023-09-18T11:24:04;8.00;;;7.00;;
73959;SDS011;62316;48.920;2.342;2023-09-18T11:26:43;3.00;;;3.00;;
73959;SDS011;62316;48.920;2.342;2023-09-18T11:29:09;5.67;;;3.33;;
73959;SDS011;62316;48.920;2.342;2023-09-18T11:34:15;3.33;;;3.00;;
73959;SDS011;62316;48.920;2.342;2023-09-18T11:36:41;3.00;;;3.00;;
73959;SDS011;62316;48.920;2.342;2023-09-18T11:39:06;6.67;;;4.00;;
73959;SDS011;62316;48.920;2.342;2023-09-18T11:41:34;3.00;;;3.00;;
73959;SDS011;62316;48.920;2.342;2023-09-18T11:46:35;5.67;;;3.33;;
73959;SDS011;62316;48.920;2.342;2023-09-18T11:49:03;5.00;;;5.00;;
73959;SDS011;62316;48.920;2.342;2023-09-18T11:51:30;4.00;;;4.00;;
73959;SDS011;62316;48.920;2.342;2023-09-18T11:53:56;3.00;;;3.00;;
73959;SDS011;62316;48.920;2.342;2023-09-18T11:56:22;4.00;;;3.00;;
73959;SDS011;62316;48.920;2.342;2023-09-18T11:58:48;3.33;;;3.33;;
73959;SDS011;62316;48.920;2.342;2023-09-18T12:01:14;6.67;;;5.33;;
73959;SDS011;62316;48.920;2.342;2023-09-18T12:03:40;3.00;;;3.00;;
73959;SDS011;62316;48.920;2.342;2023-09-18T12:06:06;4.67;;;4.00;;
73959;SDS011;62316;48.920;2.342;2023-09-18T12:08:33;2.00;;;2.00;;
73959;SDS011;62316;48.920;2.342;2023-09-18T12:10:59;3.00;;;3.00;;
73959;SDS011;62316;48.920;2.342;2023-09-18T12:13:25;2.67;;;2.33;;
73959;SDS011;62316;48.920;2.342;2023-09-18T12:18:23;3.33;;;2.67;;
73959;SDS011;62316;48.920;2.342;2023-09-18T12:20:51;2.00;;;2.00;;
73959;SDS011;62316;48.920;2.342;2023-09-18T12:23:17;4.00;;;3.33;;
73959;SDS011;62316;48.920;2.342;2023-09-18T12:25:45;3.00;;;3.00;;
73959;SDS011;62316;48.920;2.342;2023-09-18T12:28:12;3.00;;;3.00;;
73959;SDS011;62316;48.920;2.342;2023-09-18T12:30:41;2.33;;;2.33;;
73959;SDS011;62316;48.920;2.342;2023-09-18T12:33:19;3.67;;;3.00;;
73959;SDS011;62316;48.920;2.342;2023-09-18T12:35:45;2.00;;;2.00;;
73959;SDS011;62316;48.920;2.342;2023-09-18T12:38:15;3.67;;;2.00;;
73959;SDS011;62316;48.920;2.342;2023-09-18T12:40:43;2.00;;;2.00;;
73959;SDS011;62316;48.920;2.342;2023-09-18T12:43:14;3.67;;;2.67;;
73959;SDS011;62316;48.920;2.342;2023-09-18T12:45:43;3.00;;;3.00;;
73959;SDS011;62316;48.920;2.342;2023-09-18T12:48:12;6.00;;;5.00;;
73959;SDS011;62316;48.920;2.342;2023-09-18T12:50:38;2.00;;;2.00;;
73959;SDS011;62316;48.920;2.342;2023-09-18T12:53:08;4.33;;;4.33;;
73959;SDS011;62316;48.920;2.342;2023-09-18T12:55:38;3.00;;;2.00;;
73959;SDS011;62316;48.920;2.342;2023-09-18T12:58:04;3.00;;;3.00;;
73959;SDS011;62316;48.920;2.342;2023-09-18T13:00:35;2.00;;;2.00;;
73959;SDS011;62316;48.920;2.342;2023-09-18T13:03:01;1.67;;;1.67;;
73959;SDS011;62316;48.920;2.342;2023-09-18T13:05:29;3.67;;;3.00;;
73959;SDS011;62316;48.920;2.342;2023-09-18T13:08:04;3.33;;;3.33;;
73959;SDS011;62316;48.920;2.342;2023-09-18T13:10:51;5.67;;;3.33;;
73959;SDS011;62316;48.920;2.342;2023-09-18T13:13:20;2.33;;;2.33;;
73959;SDS011;62316;48.920;2.342;2023-09-18T13:15:48;5.33;;;3.00;;
73959;SDS011;62316;48.920;2.342;2023-09-18T13:18:14;4.00;;;4.00;;
73959;SDS011;62316;48.920;2.342;2023-09-18T13:20:40;3.00;;;3.00;;
73959;SDS011;62316;48.920;2.342;2023-09-18T13:23:06;2.67;;;2.00;;
73959;SDS011;62316;48.920;2.342;2023-09-18T13:28:32;3.33;;;3.00;;
73959;SDS011;62316;48.920;2.342;2023-09-18T13:30:59;4.67;;;2.00;;
73959;SDS011;62316;48.920;2.342;2023-09-18T13:33:27;2.33;;;2.00;;
73959;SDS011;62316;48.920;2.342;2023-09-18T13:35:53;2.67;;;1.33;;
73959;SDS011;62316;48.920;2.342;2023-09-18T13:38:18;4.00;;;2.67;;
73959;SDS011;62316;48.920;2.342;2023-09-18T13:40:46;1.00;;;1.00;;
73959;SDS011;62316;48.920;2.342;2023-09-18T13:43:12;2.00;;;2.00;;
73959;SDS011;62316;48.920;2.342;2023-09-18T13:45:40;3.67;;;3.67;;
73959;SDS011;62316;48.920;2.342;2023-09-18T13:48:06;1.00;;;1.00;;
73959;SDS011;62316;48.920;2.342;2023-09-18T13:50:32;2.00;;;2.00;;
73959;SDS011;62316;48.920;2.342;2023-09-18T13:52:57;1.67;;;1.67;;
73959;SDS011;62316;48.920;2.342;2023-09-18T13:55:24;1.33;;;1.33;;
73959;SDS011;62316;48.920;2.342;2023-09-18T13:57:49;2.33;;;1.00;;
73959;SDS011;62316;48.920;2.342;2023-09-18T14:00:15;1.67;;;1.67;;
73959;SDS011;62316;48.920;2.342;2023-09-18T14:02:43;1.33;;;1.33;;
73959;SDS011;62316;48.920;2.342;2023-09-18T14:05:11;2.00;;;0.67;;
73959;SDS011;62316;48.920;2.342;2023-09-18T14:07:38;1.67;;;1.67;;
73959;SDS011;62316;48.920;2.342;2023-09-18T14:10:05;1.67;;;1.67;;
73959;SDS011;62316;48.920;2.342;2023-09-18T14:12:31;1.00;;;1.00;;
73959;SDS011;62316;48.920;2.342;2023-09-18T14:14:57;3.33;;;1.33;;
73959;SDS011;62316;48.920;2.342;2023-09-18T14:17:22;2.00;;;2.00;;
73959;SDS011;62316;48.920;2.342;2023-09-18T14:19:55;0.00;;;0.00;;
73959;SDS011;62316;48.920;2.342;2023-09-18T14:22:20;0.00;;;0.00;;
73959;SDS011;62316;48.920;2.342;2023-09-18T14:24:45;2.00;;;1.00;;
73959;SDS011;62316;48.920;2.342;2023-09-18T14:27:11;1.00;;;1.00;;
73959;SDS011;62316;48.920;2.342;2023-09-18T14:29:37;1.67;;;1.33;;
73959;SDS011;62316;48.920;2.342;2023-09-18T14:32:03;3.00;;;1.00;;
73959;SDS011;62316;48.920;2.342;2023-09-18T14:34:29;3.00;;;2.00;;
73959;SDS011;62316;48.920;2.342;2023-09-18T14:36:55;1.00;;;1.00;;
73959;SDS011;62316;48.920;2.342;2023-09-18T14:39:20;1.00;;;1.00;;
73959;SDS011;62316;48.920;2.342;2023-09-18T14:41:46;1.67;;;1.67;;
73959;SDS011;62316;48.920;2.342;2023-09-18T14:44:12;0.67;;;0.33;;
73959;SDS011;62316;48.920;2.342;2023-09-18T14:46:38;3.00;;;2.00;;
73959;SDS011;62316;48.920;2.342;2023-09-18T14:49:03;4.00;;;2.00;;
73959;SDS011;62316;48.920;2.342;2023-09-18T14:51:34;2.00;;;2.00;;
73959;SDS011;62316;48.920;2.342;2023-09-18T14:54:13;2.00;;;2.00;;
73959;SDS011;62316;48.920;2.342;2023-09-18T14:56:39;3.67;;;2.33;;
73959;SDS011;62316;48.920;2.342;2023-09-18T14:59:05;2.00;;;2.00;;
73959;SDS011;62316;48.920;2.342;2023-09-18T15:01:31;5.00;;;4.33;;
73959;SDS011;62316;48.920;2.342;2023-09-18T15:03:57;3.33;;;3.33;;
73959;SDS011;62316;48.920;2.342;2023-09-18T15:06:22;3.33;;;3.33;;
73959;SDS011;62316;48.920;2.342;2023-09-18T15:08:49;1.00;;;1.00;;